sensor_id;sensor_type;location;lat;lon;timestamp;P1;durP1;ratioP1;P2;durP2;ratioP2
33840;SDS011;20142;28.494;-16.312;2023-04-08T00:02:33;19.48;;;3.25;;
33840;SDS011;20142;28.494;-16.312;2023-04-08T00:07:34;18.02;;;2.53;;
33840;SDS011;20142;28.494;-16.312;2023-04-08T00:12:37;19.73;;;3.30;;
33840;SDS011;20142;28.494;-16.312;2023-04-08T00:17:40;22.13;;;2.88;;
33840;SDS011;20142;28.494;-16.312;2023-04-08T00:22:42;17.27;;;3.00;;
33840;SDS011;20142;28.494;-16.312;2023-04-08T00:27:43;28.67;;;3.83;;
33840;SDS011;20142;28.494;-16.312;2023-04-08T00:32:45;27.40;;;2.72;;
33840;SDS011;20142;28.494;-16.312;2023-04-08T00:37:47;22.67;;;2.60;;
33840;SDS011;20142;28.494;-16.312;2023-04-08T00:42:49;19.55;;;2.40;;
33840;SDS011;20142;28.494;-16.312;2023-04-08T00:47:51;16.25;;;3.08;;
33840;SDS011;20142;28.494;-16.312;2023-04-08T00:52:52;19.70;;;2.15;;
33840;SDS011;20142;28.494;-16.312;2023-04-08T00:57:55;14.70;;;2.47;;
33840;SDS011;20142;28.494;-16.312;2023-04-08T01:03:04;18.77;;;2.70;;
33840;SDS011;20142;28.494;-16.312;2023-04-08T01:08:36;24.25;;;3.22;;
33840;SDS011;20142;28.494;-16.312;2023-04-08T01:13:41;15.27;;;2.33;;
33840;SDS011;20142;28.494;-16.312;2023-04-08T01:18:44;15.38;;;2.90;;
33840;SDS011;20142;28.494;-16.312;2023-04-08T01:29:00;19.88;;;2.38;;
33840;SDS011;20142;28.494;-16.312;2023-04-08T01:34:02;19.45;;;2.42;;
33840;SDS011;20142;28.494;-16.312;2023-04-08T01:39:06;17.40;;;2.35;;
33840;SDS011;20142;28.494;-16.312;2023-04-08T01:44:08;18.10;;;2.45;;
33840;SDS011;20142;28.494;-16.312;2023-04-08T01:49:11;18.83;;;2.72;;
33840;SDS011;20142;28.494;-16.312;2023-04-08T01:54:16;16.95;;;2.30;;
33840;SDS011;20142;28.494;-16.312;2023-04-08T01:59:18;25.27;;;3.53;;
33840;SDS011;20142;28.494;-16.312;2023-04-08T02:04:22;16.58;;;2.55;;
33840;SDS011;20142;28.494;-16.312;2023-04-08T02:09:24;12.90;;;2.10;;
33840;SDS011;20142;28.494;-16.312;2023-04-08T02:14:26;18.00;;;2.35;;
33840;SDS011;20142;28.494;-16.312;2023-04-08T02:19:29;19.20;;;2.30;;
33840;SDS011;20142;28.494;-16.312;2023-04-08T02:30:12;18.20;;;2.58;;
33840;SDS011;20142;28.494;-16.312;2023-04-08T02:35:14;14.77;;;2.67;;
33840;SDS011;20142;28.494;-16.312;2023-04-08T02:40:23;16.25;;;2.00;;
33840;SDS011;20142;28.494;-16.312;2023-04-08T02:45:31;16.80;;;2.42;;
33840;SDS011;20142;28.494;-16.312;2023-04-08T02:50:38;12.65;;;2.30;;
33840;SDS011;20142;28.494;-16.312;2023-04-08T02:55:40;17.35;;;2.42;;
33840;SDS011;20142;28.494;-16.312;2023-04-08T03:00:42;19.52;;;2.53;;
33840;SDS011;20142;28.494;-16.312;2023-04-08T03:05:44;19.90;;;2.28;;
33840;SDS011;20142;28.494;-16.312;2023-04-08T03:10:45;18.52;;;2.75;;
33840;SDS011;20142;28.494;-16.312;2023-04-08T03:15:48;18.02;;;2.30;;
33840;SDS011;20142;28.494;-16.312;2023-04-08T03:20:50;14.18;;;1.90;;
33840;SDS011;20142;28.494;-16.312;2023-04-08T03:25:52;16.27;;;2.30;;
33840;SDS011;20142;28.494;-16.312;2023-04-08T03:30:53;16.20;;;3.13;;
33840;SDS011;20142;28.494;-16.312;2023-04-08T03:35:55;18.65;;;2.30;;
33840;SDS011;20142;28.494;-16.312;2023-04-08T03:40:57;19.02;;;2.30;;
33840;SDS011;20142;28.494;-16.312;2023-04-08T03:45:58;23.70;;;3.03;;
33840;SDS011;20142;28.494;-16.312;2023-04-08T03:51:00;19.38;;;2.35;;
33840;SDS011;20142;28.494;-16.312;2023-04-08T03:56:02;18.58;;;2.63;;
33840;SDS011;20142;28.494;-16.312;2023-04-08T04:01:04;23.33;;;2.95;;
33840;SDS011;20142;28.494;-16.312;2023-04-08T04:06:05;17.38;;;2.50;;
33840;SDS011;20142;28.494;-16.312;2023-04-08T04:11:07;21.38;;;2.60;;
33840;SDS011;20142;28.494;-16.312;2023-04-08T04:16:09;20.27;;;3.28;;
33840;SDS011;20142;28.494;-16.312;2023-04-08T04:21:10;20.38;;;2.35;;
33840;SDS011;20142;28.494;-16.312;2023-04-08T04:26:12;14.50;;;2.33;;
33840;SDS011;20142;28.494;-16.312;2023-04-08T04:31:21;14.85;;;2.55;;
33840;SDS011;20142;28.494;-16.312;2023-04-08T04:36:25;18.48;;;2.50;;
33840;SDS011;20142;28.494;-16.312;2023-04-08T04:41:27;23.45;;;3.00;;
33840;SDS011;20142;28.494;-16.312;2023-04-08T04:46:29;12.60;;;2.40;;
33840;SDS011;20142;28.494;-16.312;2023-04-08T04:51:31;21.85;;;3.22;;
33840;SDS011;20142;28.494;-16.312;2023-04-08T04:56:33;17.05;;;2.47;;
33840;SDS011;20142;28.494;-16.312;2023-04-08T05:01:35;21.80;;;2.80;;
33840;SDS011;20142;28.494;-16.312;2023-04-08T05:06:36;22.38;;;2.95;;
33840;SDS011;20142;28.494;-16.312;2023-04-08T05:11:38;19.55;;;3.38;;
33840;SDS011;20142;28.494;-16.312;2023-04-08T05:16:40;19.75;;;2.58;;
33840;SDS011;20142;28.494;-16.312;2023-04-08T05:21:41;15.43;;;2.40;;
33840;SDS011;20142;28.494;-16.312;2023-04-08T05:26:43;24.25;;;3.42;;
33840;SDS011;20142;28.494;-16.312;2023-04-08T05:31:45;19.88;;;2.60;;
33840;SDS011;20142;28.494;-16.312;2023-04-08T05:36:48;14.75;;;2.72;;
33840;SDS011;20142;28.494;-16.312;2023-04-08T05:41:53;23.75;;;2.92;;
33840;SDS011;20142;28.494;-16.312;2023-04-08T05:46:55;14.90;;;2.80;;
33840;SDS011;20142;28.494;-16.312;2023-04-08T05:51:57;24.45;;;2.92;;
33840;SDS011;20142;28.494;-16.312;2023-04-08T05:56:59;26.58;;;3.45;;
33840;SDS011;20142;28.494;-16.312;2023-04-08T06:02:00;22.90;;;2.65;;
33840;SDS011;20142;28.494;-16.312;2023-04-08T06:07:02;19.15;;;3.28;;
33840;SDS011;20142;28.494;-16.312;2023-04-08T06:12:05;22.65;;;3.05;;
33840;SDS011;20142;28.494;-16.312;2023-04-08T06:17:07;14.68;;;2.10;;
33840;SDS011;20142;28.494;-16.312;2023-04-08T06:22:09;23.70;;;2.50;;
33840;SDS011;20142;28.494;-16.312;2023-04-08T06:27:10;16.85;;;2.50;;
33840;SDS011;20142;28.494;-16.312;2023-04-08T06:32:12;20.02;;;2.40;;
33840;SDS011;20142;28.494;-16.312;2023-04-08T06:37:14;18.52;;;3.05;;
33840;SDS011;20142;28.494;-16.312;2023-04-08T06:42:16;21.45;;;2.88;;
33840;SDS011;20142;28.494;-16.312;2023-04-08T06:47:17;25.02;;;3.42;;
33840;SDS011;20142;28.494;-16.312;2023-04-08T06:52:19;25.15;;;3.45;;
33840;SDS011;20142;28.494;-16.312;2023-04-08T06:57:21;25.55;;;3.03;;
33840;SDS011;20142;28.494;-16.312;2023-04-08T07:02:22;19.80;;;2.60;;
33840;SDS011;20142;28.494;-16.312;2023-04-08T07:07:24;22.73;;;2.97;;
33840;SDS011;20142;28.494;-16.312;2023-04-08T07:12:26;16.77;;;2.85;;
33840;SDS011;20142;28.494;-16.312;2023-04-08T07:17:27;24.00;;;3.00;;
33840;SDS011;20142;28.494;-16.312;2023-04-08T07:22:29;20.73;;;2.53;;
33840;SDS011;20142;28.494;-16.312;2023-04-08T07:27:32;18.40;;;2.55;;
33840;SDS011;20142;28.494;-16.312;2023-04-08T07:32:34;19.20;;;2.78;;
33840;SDS011;20142;28.494;-16.312;2023-04-08T07:37:36;19.45;;;2.75;;
33840;SDS011;20142;28.494;-16.312;2023-04-08T07:42:38;13.60;;;2.83;;
33840;SDS011;20142;28.494;-16.312;2023-04-08T07:47:40;21.73;;;2.92;;
33840;SDS011;20142;28.494;-16.312;2023-04-08T07:52:41;17.77;;;3.00;;
33840;SDS011;20142;28.494;-16.312;2023-04-08T07:57:43;18.98;;;3.22;;
33840;SDS011;20142;28.494;-16.312;2023-04-08T08:02:46;19.83;;;3.30;;
33840;SDS011;20142;28.494;-16.312;2023-04-08T08:07:48;19.48;;;3.03;;
33840;SDS011;20142;28.494;-16.312;2023-04-08T08:12:50;21.65;;;2.97;;
33840;SDS011;20142;28.494;-16.312;2023-04-08T08:17:51;16.13;;;3.22;;
33840;SDS011;20142;28.494;-16.312;2023-04-08T08:22:53;18.60;;;2.72;;
33840;SDS011;20142;28.494;-16.312;2023-04-08T08:27:55;20.80;;;2.42;;
33840;SDS011;20142;28.494;-16.312;2023-04-08T08:32:57;15.30;;;2.15;;
33840;SDS011;20142;28.494;-16.312;2023-04-08T08:38:00;14.90;;;2.40;;
33840;SDS011;20142;28.494;-16.312;2023-04-08T08:43:02;14.60;;;2.40;;
33840;SDS011;20142;28.494;-16.312;2023-04-08T08:48:04;15.90;;;2.42;;
33840;SDS011;20142;28.494;-16.312;2023-04-08T08:53:08;19.85;;;2.45;;
33840;SDS011;20142;28.494;-16.312;2023-04-08T08:58:10;22.30;;;2.30;;
33840;SDS011;20142;28.494;-16.312;2023-04-08T09:03:18;15.90;;;1.98;;
33840;SDS011;20142;28.494;-16.312;2023-04-08T09:08:29;14.63;;;2.10;;
33840;SDS011;20142;28.494;-16.312;2023-04-08T09:13:34;13.63;;;2.58;;
33840;SDS011;20142;28.494;-16.312;2023-04-08T09:18:37;16.48;;;2.85;;
33840;SDS011;20142;28.494;-16.312;2023-04-08T09:29:08;18.10;;;2.70;;
33840;SDS011;20142;28.494;-16.312;2023-04-08T09:34:12;17.95;;;2.78;;
33840;SDS011;20142;28.494;-16.312;2023-04-08T09:39:16;13.27;;;2.30;;
33840;SDS011;20142;28.494;-16.312;2023-04-08T09:44:19;13.27;;;1.83;;
33840;SDS011;20142;28.494;-16.312;2023-04-08T10:00:03;12.13;;;1.83;;
33840;SDS011;20142;28.494;-16.312;2023-04-08T10:05:11;15.05;;;1.90;;
33840;SDS011;20142;28.494;-16.312;2023-04-08T10:10:14;10.32;;;1.55;;
33840;SDS011;20142;28.494;-16.312;2023-04-08T10:15:30;13.15;;;1.92;;
33840;SDS011;20142;28.494;-16.312;2023-04-08T10:25:37;20.75;;;2.00;;
33840;SDS011;20142;28.494;-16.312;2023-04-08T10:30:50;14.55;;;2.00;;
33840;SDS011;20142;28.494;-16.312;2023-04-08T10:36:00;13.55;;;1.77;;
33840;SDS011;20142;28.494;-16.312;2023-04-08T10:41:13;11.60;;;1.98;;
33840;SDS011;20142;28.494;-16.312;2023-04-08T10:46:26;9.95;;;1.45;;
33840;SDS011;20142;28.494;-16.312;2023-04-08T10:51:31;17.73;;;2.45;;
33840;SDS011;20142;28.494;-16.312;2023-04-08T10:56:35;13.68;;;2.00;;
33840;SDS011;20142;28.494;-16.312;2023-04-08T11:01:44;12.15;;;2.30;;
33840;SDS011;20142;28.494;-16.312;2023-04-08T11:06:46;11.32;;;1.83;;
33840;SDS011;20142;28.494;-16.312;2023-04-08T11:11:48;15.15;;;2.13;;
33840;SDS011;20142;28.494;-16.312;2023-04-08T11:16:50;15.45;;;1.95;;
33840;SDS011;20142;28.494;-16.312;2023-04-08T11:21:52;11.98;;;1.73;;
33840;SDS011;20142;28.494;-16.312;2023-04-08T11:26:54;16.80;;;2.20;;
33840;SDS011;20142;28.494;-16.312;2023-04-08T11:31:56;12.73;;;2.60;;
33840;SDS011;20142;28.494;-16.312;2023-04-08T11:36:58;8.90;;;1.73;;
33840;SDS011;20142;28.494;-16.312;2023-04-08T11:42:01;10.88;;;1.50;;
33840;SDS011;20142;28.494;-16.312;2023-04-08T11:47:02;17.08;;;1.88;;
33840;SDS011;20142;28.494;-16.312;2023-04-08T11:52:04;13.35;;;1.98;;
33840;SDS011;20142;28.494;-16.312;2023-04-08T11:57:07;15.32;;;1.85;;
33840;SDS011;20142;28.494;-16.312;2023-04-08T12:02:10;7.03;;;1.50;;
33840;SDS011;20142;28.494;-16.312;2023-04-08T12:07:11;12.02;;;2.30;;
33840;SDS011;20142;28.494;-16.312;2023-04-08T12:12:13;13.82;;;2.08;;
33840;SDS011;20142;28.494;-16.312;2023-04-08T12:17:15;10.75;;;1.95;;
33840;SDS011;20142;28.494;-16.312;2023-04-08T12:22:17;14.57;;;2.20;;
33840;SDS011;20142;28.494;-16.312;2023-04-08T12:27:19;14.20;;;2.13;;
33840;SDS011;20142;28.494;-16.312;2023-04-08T12:32:20;14.02;;;1.88;;
33840;SDS011;20142;28.494;-16.312;2023-04-08T12:37:22;14.95;;;2.08;;
33840;SDS011;20142;28.494;-16.312;2023-04-08T12:42:24;10.63;;;1.38;;
33840;SDS011;20142;28.494;-16.312;2023-04-08T12:47:26;16.73;;;2.35;;
33840;SDS011;20142;28.494;-16.312;2023-04-08T12:52:27;13.40;;;2.28;;
33840;SDS011;20142;28.494;-16.312;2023-04-08T12:57:30;14.73;;;1.92;;
33840;SDS011;20142;28.494;-16.312;2023-04-08T13:02:31;9.90;;;1.80;;
33840;SDS011;20142;28.494;-16.312;2023-04-08T13:07:33;14.00;;;2.33;;
33840;SDS011;20142;28.494;-16.312;2023-04-08T13:12:34;12.60;;;2.45;;
33840;SDS011;20142;28.494;-16.312;2023-04-08T13:17:39;13.65;;;1.77;;
33840;SDS011;20142;28.494;-16.312;2023-04-08T13:22:41;13.15;;;2.22;;
33840;SDS011;20142;28.494;-16.312;2023-04-08T13:27:43;11.02;;;1.98;;
33840;SDS011;20142;28.494;-16.312;2023-04-08T13:32:45;8.73;;;1.88;;
33840;SDS011;20142;28.494;-16.312;2023-04-08T13:37:46;12.50;;;2.05;;
33840;SDS011;20142;28.494;-16.312;2023-04-08T13:42:48;10.82;;;1.65;;
33840;SDS011;20142;28.494;-16.312;2023-04-08T13:47:50;10.75;;;2.05;;
33840;SDS011;20142;28.494;-16.312;2023-04-08T13:52:51;11.63;;;2.17;;
33840;SDS011;20142;28.494;-16.312;2023-04-08T13:57:53;11.13;;;2.47;;
33840;SDS011;20142;28.494;-16.312;2023-04-08T14:02:55;10.85;;;1.88;;
33840;SDS011;20142;28.494;-16.312;2023-04-08T14:07:57;17.40;;;2.20;;
33840;SDS011;20142;28.494;-16.312;2023-04-08T14:12:59;10.18;;;1.90;;
33840;SDS011;20142;28.494;-16.312;2023-04-08T14:18:00;10.70;;;1.75;;
33840;SDS011;20142;28.494;-16.312;2023-04-08T14:23:02;10.93;;;1.67;;
33840;SDS011;20142;28.494;-16.312;2023-04-08T14:28:04;10.70;;;2.10;;
33840;SDS011;20142;28.494;-16.312;2023-04-08T14:33:06;14.07;;;2.20;;
33840;SDS011;20142;28.494;-16.312;2023-04-08T14:38:07;12.23;;;1.80;;
33840;SDS011;20142;28.494;-16.312;2023-04-08T14:43:09;12.88;;;1.90;;
33840;SDS011;20142;28.494;-16.312;2023-04-08T14:48:12;11.52;;;1.88;;
33840;SDS011;20142;28.494;-16.312;2023-04-08T14:53:13;11.55;;;1.73;;
33840;SDS011;20142;28.494;-16.312;2023-04-08T14:58:15;15.57;;;1.83;;
33840;SDS011;20142;28.494;-16.312;2023-04-08T15:03:17;15.73;;;2.42;;
33840;SDS011;20142;28.494;-16.312;2023-04-08T15:08:19;11.35;;;1.52;;
33840;SDS011;20142;28.494;-16.312;2023-04-08T15:13:20;11.65;;;2.10;;
33840;SDS011;20142;28.494;-16.312;2023-04-08T15:18:22;8.65;;;1.90;;
33840;SDS011;20142;28.494;-16.312;2023-04-08T15:23:24;12.63;;;1.38;;
33840;SDS011;20142;28.494;-16.312;2023-04-08T15:28:26;8.40;;;1.75;;
33840;SDS011;20142;28.494;-16.312;2023-04-08T15:33:28;10.48;;;2.17;;
33840;SDS011;20142;28.494;-16.312;2023-04-08T15:38:30;12.13;;;2.15;;
33840;SDS011;20142;28.494;-16.312;2023-04-08T15:43:33;12.70;;;2.33;;
33840;SDS011;20142;28.494;-16.312;2023-04-08T15:48:35;10.07;;;1.85;;
33840;SDS011;20142;28.494;-16.312;2023-04-08T15:53:36;9.65;;;1.83;;
33840;SDS011;20142;28.494;-16.312;2023-04-08T15:58:42;5.53;;;1.38;;
33840;SDS011;20142;28.494;-16.312;2023-04-08T16:03:45;10.77;;;1.95;;
33840;SDS011;20142;28.494;-16.312;2023-04-08T16:08:47;10.50;;;2.08;;
33840;SDS011;20142;28.494;-16.312;2023-04-08T16:13:49;13.48;;;2.00;;
33840;SDS011;20142;28.494;-16.312;2023-04-08T16:18:51;9.10;;;2.20;;
33840;SDS011;20142;28.494;-16.312;2023-04-08T16:23:55;6.65;;;2.03;;
33840;SDS011;20142;28.494;-16.312;2023-04-08T16:28:57;12.63;;;2.20;;
33840;SDS011;20142;28.494;-16.312;2023-04-08T16:33:59;8.85;;;1.50;;
33840;SDS011;20142;28.494;-16.312;2023-04-08T16:39:00;10.65;;;1.88;;
33840;SDS011;20142;28.494;-16.312;2023-04-08T16:44:03;10.82;;;2.00;;
33840;SDS011;20142;28.494;-16.312;2023-04-08T16:49:05;7.38;;;2.20;;
33840;SDS011;20142;28.494;-16.312;2023-04-08T16:54:06;7.82;;;1.90;;
33840;SDS011;20142;28.494;-16.312;2023-04-08T16:59:08;9.60;;;1.42;;
33840;SDS011;20142;28.494;-16.312;2023-04-08T17:04:10;7.88;;;1.65;;
33840;SDS011;20142;28.494;-16.312;2023-04-08T17:09:12;9.93;;;2.25;;
33840;SDS011;20142;28.494;-16.312;2023-04-08T17:14:13;11.23;;;1.95;;
33840;SDS011;20142;28.494;-16.312;2023-04-08T17:19:15;11.93;;;2.50;;
33840;SDS011;20142;28.494;-16.312;2023-04-08T17:24:17;13.25;;;2.05;;
33840;SDS011;20142;28.494;-16.312;2023-04-08T17:29:19;13.18;;;2.20;;
33840;SDS011;20142;28.494;-16.312;2023-04-08T17:34:20;10.52;;;2.10;;
33840;SDS011;20142;28.494;-16.312;2023-04-08T17:39:22;10.27;;;1.80;;
33840;SDS011;20142;28.494;-16.312;2023-04-08T17:44:24;10.18;;;2.20;;
33840;SDS011;20142;28.494;-16.312;2023-04-08T17:49:29;9.85;;;2.00;;
33840;SDS011;20142;28.494;-16.312;2023-04-08T17:54:31;10.25;;;2.25;;
33840;SDS011;20142;28.494;-16.312;2023-04-08T17:59:34;8.77;;;1.55;;
33840;SDS011;20142;28.494;-16.312;2023-04-08T18:04:35;10.95;;;1.50;;
33840;SDS011;20142;28.494;-16.312;2023-04-08T18:09:38;9.90;;;2.00;;
33840;SDS011;20142;28.494;-16.312;2023-04-08T18:14:40;11.63;;;1.95;;
33840;SDS011;20142;28.494;-16.312;2023-04-08T18:19:42;9.93;;;1.80;;
33840;SDS011;20142;28.494;-16.312;2023-04-08T18:24:43;13.73;;;1.60;;
33840;SDS011;20142;28.494;-16.312;2023-04-08T18:29:45;14.55;;;2.20;;
33840;SDS011;20142;28.494;-16.312;2023-04-08T18:34:49;11.07;;;1.90;;
33840;SDS011;20142;28.494;-16.312;2023-04-08T18:39:52;14.57;;;2.08;;
33840;SDS011;20142;28.494;-16.312;2023-04-08T18:44:54;14.23;;;2.13;;
33840;SDS011;20142;28.494;-16.312;2023-04-08T18:49:55;12.07;;;1.92;;
33840;SDS011;20142;28.494;-16.312;2023-04-08T18:54:58;13.15;;;1.98;;
33840;SDS011;20142;28.494;-16.312;2023-04-08T18:59:59;16.25;;;2.10;;
33840;SDS011;20142;28.494;-16.312;2023-04-08T19:05:01;11.48;;;1.65;;
33840;SDS011;20142;28.494;-16.312;2023-04-08T19:10:03;14.77;;;2.45;;
33840;SDS011;20142;28.494;-16.312;2023-04-08T19:15:06;17.05;;;1.63;;
33840;SDS011;20142;28.494;-16.312;2023-04-08T19:20:08;11.82;;;2.60;;
33840;SDS011;20142;28.494;-16.312;2023-04-08T19:25:10;11.98;;;1.55;;
33840;SDS011;20142;28.494;-16.312;2023-04-08T19:30:12;7.93;;;1.67;;
33840;SDS011;20142;28.494;-16.312;2023-04-08T19:35:14;9.27;;;1.70;;
33840;SDS011;20142;28.494;-16.312;2023-04-08T19:40:15;12.55;;;2.40;;
33840;SDS011;20142;28.494;-16.312;2023-04-08T19:45:17;14.57;;;1.80;;
33840;SDS011;20142;28.494;-16.312;2023-04-08T19:50:19;13.95;;;2.40;;
33840;SDS011;20142;28.494;-16.312;2023-04-08T19:55:21;11.88;;;1.40;;
33840;SDS011;20142;28.494;-16.312;2023-04-08T20:00:23;18.67;;;2.65;;
33840;SDS011;20142;28.494;-16.312;2023-04-08T20:05:27;20.25;;;2.15;;
33840;SDS011;20142;28.494;-16.312;2023-04-08T20:10:29;11.50;;;1.80;;
33840;SDS011;20142;28.494;-16.312;2023-04-08T20:15:31;20.65;;;3.03;;
33840;SDS011;20142;28.494;-16.312;2023-04-08T20:20:32;21.73;;;2.28;;
33840;SDS011;20142;28.494;-16.312;2023-04-08T20:25:34;14.13;;;1.88;;
33840;SDS011;20142;28.494;-16.312;2023-04-08T20:30:36;15.27;;;1.90;;
33840;SDS011;20142;28.494;-16.312;2023-04-08T20:35:39;12.38;;;1.67;;
33840;SDS011;20142;28.494;-16.312;2023-04-08T20:40:41;14.02;;;2.53;;
33840;SDS011;20142;28.494;-16.312;2023-04-08T20:45:45;13.85;;;1.85;;
33840;SDS011;20142;28.494;-16.312;2023-04-08T20:50:47;15.43;;;1.77;;
33840;SDS011;20142;28.494;-16.312;2023-04-08T20:55:49;13.05;;;1.95;;
33840;SDS011;20142;28.494;-16.312;2023-04-08T21:00:52;13.75;;;1.52;;
33840;SDS011;20142;28.494;-16.312;2023-04-08T21:05:53;13.80;;;2.13;;
33840;SDS011;20142;28.494;-16.312;2023-04-08T21:10:56;20.02;;;1.98;;
33840;SDS011;20142;28.494;-16.312;2023-04-08T21:15:57;8.35;;;1.65;;
33840;SDS011;20142;28.494;-16.312;2023-04-08T21:20:59;13.30;;;1.83;;
33840;SDS011;20142;28.494;-16.312;2023-04-08T21:26:01;14.23;;;1.90;;
33840;SDS011;20142;28.494;-16.312;2023-04-08T21:31:06;13.55;;;1.83;;
33840;SDS011;20142;28.494;-16.312;2023-04-08T21:36:09;12.13;;;1.77;;
33840;SDS011;20142;28.494;-16.312;2023-04-08T21:41:11;13.20;;;1.75;;
33840;SDS011;20142;28.494;-16.312;2023-04-08T21:46:12;10.63;;;1.40;;
33840;SDS011;20142;28.494;-16.312;2023-04-08T21:51:17;13.35;;;1.63;;
33840;SDS011;20142;28.494;-16.312;2023-04-08T21:56:19;14.45;;;1.83;;
33840;SDS011;20142;28.494;-16.312;2023-04-08T22:01:21;13.23;;;1.90;;
33840;SDS011;20142;28.494;-16.312;2023-04-08T22:06:23;10.85;;;1.63;;
33840;SDS011;20142;28.494;-16.312;2023-04-08T22:11:25;9.63;;;1.50;;
33840;SDS011;20142;28.494;-16.312;2023-04-08T22:16:27;13.27;;;1.83;;
33840;SDS011;20142;28.494;-16.312;2023-04-08T22:21:29;15.95;;;2.47;;
33840;SDS011;20142;28.494;-16.312;2023-04-08T22:26:31;10.55;;;1.75;;
33840;SDS011;20142;28.494;-16.312;2023-04-08T22:31:32;15.38;;;1.52;;
33840;SDS011;20142;28.494;-16.312;2023-04-08T22:36:34;11.48;;;1.55;;
33840;SDS011;20142;28.494;-16.312;2023-04-08T22:41:36;15.98;;;2.67;;
33840;SDS011;20142;28.494;-16.312;2023-04-08T22:46:38;19.00;;;1.77;;
33840;SDS011;20142;28.494;-16.312;2023-04-08T22:51:40;15.63;;;1.73;;
33840;SDS011;20142;28.494;-16.312;2023-04-08T22:56:42;14.13;;;1.92;;
33840;SDS011;20142;28.494;-16.312;2023-04-08T23:01:44;9.75;;;1.52;;
33840;SDS011;20142;28.494;-16.312;2023-04-08T23:06:45;8.27;;;1.35;;
33840;SDS011;20142;28.494;-16.312;2023-04-08T23:11:47;14.05;;;1.90;;
33840;SDS011;20142;28.494;-16.312;2023-04-08T23:16:49;15.38;;;1.38;;
33840;SDS011;20142;28.494;-16.312;2023-04-08T23:21:50;14.88;;;2.45;;
33840;SDS011;20142;28.494;-16.312;2023-04-08T23:26:52;14.38;;;1.92;;
33840;SDS011;20142;28.494;-16.312;2023-04-08T23:31:54;13.23;;;1.70;;
33840;SDS011;20142;28.494;-16.312;2023-04-08T23:36:55;10.70;;;1.77;;
33840;SDS011;20142;28.494;-16.312;2023-04-08T23:41:57;9.02;;;1.30;;
33840;SDS011;20142;28.494;-16.312;2023-04-08T23:46:59;10.95;;;1.63;;
33840;SDS011;20142;28.494;-16.312;2023-04-08T23:52:01;11.40;;;1.45;;
33840;SDS011;20142;28.494;-16.312;2023-04-08T23:57:02;10.18;;;1.33;;
